Time;durP1;ratioP1;P1;durP2;ratioP2;P2;SDS_P1;SDS_P2;PMS_P1;PMS_P2;Temp;Humidity;BMP_temperature;BMP_pressure;BME280_temperature;BME280_humidity;BME280_pressure;Samples;Min_cycle;Max_cycle;Signal;HPM_P1;HPM_P2
2021/04/09 00:01:45;;;;;;;64.05;30.35;;;;;;;0.24;82.54;99221.52;114832;1202;23093;-76
2021/04/09 00:04:14;;;;;;;77.07;37.70;;;;;;;0.22;82.51;99223.52;114897;1199;23231;-76
2021/04/09 00:06:42;;;;;;;73.97;34.40;;;;;;;0.22;82.71;99227.02;114893;1200;23292;-76
2021/04/09 00:09:10;;;;;;;68.35;31.40;;;;;;;0.22;82.15;99218.98;115036;1202;23170;-77
2021/04/09 00:11:38;;;;;;;69.53;31.90;;;;;;;0.18;81.89;99210.44;115079;1202;23093;-76
2021/04/09 00:14:08;;;;;;;61.47;33.37;;;;;;;0.14;82.76;99218.94;115091;1200;24553;-76
2021/04/09 00:16:35;;;;;;;68.87;35.40;;;;;;;0.09;82.00;99222.11;115085;1202;24749;-76
2021/04/09 00:19:09;;;;;;;68.73;33.33;;;;;;;0.05;82.36;99220.73;115114;1201;27383;-76
2021/04/09 00:21:36;;;;;;;60.40;31.60;;;;;;;0.04;82.09;99223.59;114827;1202;23093;-76
2021/04/09 00:24:03;;;;;;;62.57;30.77;;;;;;;0.01;82.84;99219.38;114771;1202;23112;-76
2021/04/09 00:26:30;;;;;;;68.20;34.20;;;;;;;-0.03;82.33;99221.53;115053;1202;26137;-76
2021/04/09 00:28:57;;;;;;;67.80;36.07;;;;;;;-0.04;82.81;99221.68;115002;1202;23095;-76
2021/04/09 00:31:24;;;;;;;69.65;33.45;;;;;;;-0.03;82.76;99218.85;115124;1202;27323;-77
2021/04/09 00:33:51;;;;;;;69.43;31.73;;;;;;;-0.01;82.63;99219.53;114810;1202;23109;-76
2021/04/09 00:36:18;;;;;;;69.80;31.40;;;;;;;-0.03;82.77;99218.02;114786;1202;25073;-76
2021/04/09 00:38:45;;;;;;;73.55;33.40;;;;;;;-0.09;82.54;99214.14;115033;1202;25986;-77
2021/04/09 00:41:14;;;;;;;71.13;34.30;;;;;;;-0.10;82.21;99216.97;115034;1200;23139;-77
2021/04/09 00:43:41;;;;;;;65.40;31.60;;;;;;;-0.13;82.86;99217.28;114847;1203;23150;-77
2021/04/09 00:46:08;;;;;;;61.67;29.37;;;;;;;-0.13;82.61;99225.31;115062;1202;24222;-77
2021/04/09 00:48:35;;;;;;;62.17;32.47;;;;;;;-0.15;82.53;99216.61;114775;1201;24881;-77
2021/04/09 00:51:04;;;;;;;65.27;33.53;;;;;;;-0.17;82.70;99223.95;114822;1201;26172;-78
2021/04/09 00:53:33;;;;;;;68.30;32.90;;;;;;;-0.18;82.47;99214.23;115141;1201;23109;-77
2021/04/09 00:56:06;;;;;;;65.97;31.33;;;;;;;-0.23;82.38;99212.88;115100;1198;26370;-77
2021/04/09 00:58:34;;;;;;;62.90;31.10;;;;;;;-0.26;82.69;99212.35;114910;1200;29145;-78
2021/04/09 01:01:02;;;;;;;69.95;33.25;;;;;;;-0.27;83.08;99210.66;115052;1202;23148;-78
2021/04/09 01:03:29;;;;;;;75.80;39.27;;;;;;;-0.30;82.52;99218.99;115060;1202;23330;-78
2021/04/09 01:05:56;;;;;;;76.90;36.50;;;;;;;-0.28;82.93;99212.50;115135;1197;26022;-78
2021/04/09 01:08:23;;;;;;;75.60;36.00;;;;;;;-0.32;83.19;99208.47;114884;1203;23251;-78
2021/04/09 01:10:50;;;;;;;74.55;38.85;;;;;;;-0.32;83.26;99219.17;115017;1202;23147;-78
2021/04/09 01:13:17;;;;;;;84.67;40.67;;;;;;;-0.33;83.30;99204.11;114857;1200;23093;-78
2021/04/09 01:15:44;;;;;;;69.45;37.65;;;;;;;-0.33;83.15;99214.81;114994;1202;24776;-78
2021/04/09 01:18:30;;;;;;;84.13;39.87;;;;;;;-0.32;83.30;99220.99;114831;1201;24727;-78
2021/04/09 01:21:15;;;;;;;79.15;36.10;;;;;;;-0.33;83.68;99211.30;114844;1201;23112;-78
2021/04/09 01:24:01;;;;;;;86.63;42.17;;;;;;;-0.34;83.02;99214.96;114862;1199;23112;-78
2021/04/09 01:26:59;;;;;;;82.77;42.00;;;;;;;-0.35;83.29;99215.95;114883;1202;25955;-78
2021/04/09 01:29:51;;;;;;;73.17;39.40;;;;;;;-0.35;83.58;99206.10;115017;1199;24848;-78
2021/04/09 01:32:20;;;;;;;77.13;36.60;;;;;;;-0.37;83.71;99208.09;115285;1199;26176;-78
2021/04/09 01:34:53;;;;;;;84.00;39.90;;;;;;;-0.38;83.30;99206.41;115185;1202;23099;-78
2021/04/09 01:37:26;;;;;;;85.07;38.63;;;;;;;-0.43;83.22;99206.86;115070;1202;23109;-79
2021/04/09 01:40:02;;;;;;;87.43;38.97;;;;;;;-0.44;83.77;99207.05;114995;1198;23122;-78
2021/04/09 01:42:31;;;;;;;72.93;34.27;;;;;;;-0.45;83.82;99208.86;115096;1200;23248;-78
2021/04/09 01:45:00;;;;;;;84.63;38.90;;;;;;;-0.46;83.40;99200.98;115274;1202;27287;-79
2021/04/09 01:47:29;;;;;;;86.80;41.50;;;;;;;-0.48;83.50;99206.52;115140;1200;27179;-78
2021/04/09 01:50:01;;;;;;;88.95;40.00;;;;;;;-0.49;83.48;99207.50;115257;1200;27208;-78
2021/04/09 01:52:32;;;;;;;73.87;34.67;;;;;;;-0.47;83.95;99202.00;115089;1200;23116;-78
2021/04/09 01:55:01;;;;;;;76.60;34.75;;;;;;;-0.49;84.06;99198.64;114924;1199;27719;-79
2021/04/09 01:57:30;;;;;;;82.43;39.60;;;;;;;-0.48;83.95;99205.66;115251;1203;23154;-78
2021/04/09 02:00:00;;;;;;;87.40;38.85;;;;;;;-0.49;83.86;99206.67;115012;1202;23228;-79
2021/04/09 02:02:29;;;;;;;84.30;36.47;;;;;;;-0.49;83.98;99204.83;115128;1200;24437;-79
2021/04/09 02:04:57;;;;;;;67.90;33.60;;;;;;;-0.52;83.40;99209.65;114992;1198;23089;-78
2021/04/09 02:07:26;;;;;;;78.43;38.60;;;;;;;-0.56;83.83;99208.29;114987;1202;23082;-78
2021/04/09 02:09:55;;;;;;;84.83;39.70;;;;;;;-0.59;83.64;99204.06;115143;1202;25959;-79
2021/04/09 02:12:22;;;;;;;77.63;37.60;;;;;;;-0.62;83.64;99210.58;115225;1202;23314;-78
2021/04/09 02:14:55;;;;;;;76.65;34.40;;;;;;;-0.64;83.48;99196.53;115016;1200;23150;-78
2021/04/09 02:17:23;;;;;;;77.05;37.80;;;;;;;-0.65;83.64;99196.67;115280;1199;23153;-78
2021/04/09 02:19:51;;;;;;;79.13;38.97;;;;;;;-0.69;83.71;99204.17;115112;1200;23220;-79
2021/04/09 02:22:19;;;;;;;73.05;37.70;;;;;;;-0.68;83.39;99205.00;115286;1202;24705;-78
2021/04/09 02:24:48;;;;;;;69.00;34.60;;;;;;;-0.72;83.63;99209.82;114997;1202;23279;-78
2021/04/09 02:27:16;;;;;;;78.20;36.53;;;;;;;-0.77;83.54;99199.57;115106;1202;23182;-78
2021/04/09 02:29:44;;;;;;;78.60;38.93;;;;;;;-0.78;83.34;99200.59;114914;1199;24792;-78
2021/04/09 02:32:11;;;;;;;81.60;36.10;;;;;;;-0.76;83.69;99203.11;115278;1199;23109;-78
2021/04/09 02:34:39;;;;;;;71.37;32.97;;;;;;;-0.77;83.85;99198.74;115092;1202;24903;-78
2021/04/09 02:37:06;;;;;;;80.50;34.77;;;;;;;-0.74;83.28;99206.47;115181;1202;27173;-77
2021/04/09 02:39:36;;;;;;;71.10;33.77;;;;;;;-0.75;83.74;99211.97;114950;1201;23103;-77
2021/04/09 02:42:08;;;;;;;68.10;34.10;;;;;;;-0.78;83.51;99202.40;115314;1199;25958;-77
2021/04/09 02:44:36;;;;;;;80.55;37.50;;;;;;;-0.80;82.95;99204.39;115221;1199;23436;-77
2021/04/09 02:47:11;;;;;;;71.95;35.95;;;;;;;-0.83;83.57;99197.53;114939;1199;23123;-77
2021/04/09 02:49:47;;;;;;;70.80;33.10;;;;;;;-0.85;83.75;99187.97;115063;1202;23119;-78
2021/04/09 02:52:22;;;;;;;75.53;37.23;;;;;;;-0.88;83.05;99197.14;115056;1199;23122;-78
2021/04/09 02:54:51;;;;;;;75.95;36.55;;;;;;;-0.89;83.14;99187.44;115180;1202;23095;-78
2021/04/09 02:57:21;;;;;;;71.33;33.70;;;;;;;-0.90;83.08;99192.93;115038;1199;23102;-78
2021/04/09 02:59:50;;;;;;;65.50;33.60;;;;;;;-0.91;83.88;99193.94;115179;1201;23539;-78
2021/04/09 03:02:18;;;;;;;75.53;38.58;;;;;;;-0.95;83.88;99188.06;115058;1201;24855;-78
2021/04/09 03:04:46;;;;;;;72.87;34.47;;;;;;;-0.92;83.61;99192.25;115208;1199;23224;-78
2021/04/09 03:07:15;;;;;;;72.10;33.83;;;;;;;-0.93;83.41;99187.91;115235;1202;23116;-78
2021/04/09 03:09:42;;;;;;;64.60;32.73;;;;;;;-0.94;83.53;99180.88;115273;1199;23111;-78
2021/04/09 03:12:16;;;;;;;75.73;34.57;;;;;;;-0.96;83.72;99184.55;114941;1202;23193;-78
2021/04/09 03:14:45;;;;;;;63.20;30.45;;;;;;;-0.95;83.68;99180.04;114869;1201;23085;-78
2021/04/09 03:17:37;;;;;;;70.15;35.10;;;;;;;-0.99;83.30;99182.18;115065;1202;23231;-78
2021/04/09 03:20:07;;;;;;;63.17;31.33;;;;;;;-1.01;83.72;99183.31;115038;1200;27201;-78
2021/04/09 03:22:34;;;;;;;67.03;31.93;;;;;;;-1.02;83.73;99179.80;114925;1200;23086;-78
2021/04/09 03:25:02;;;;;;;64.33;30.87;;;;;;;-1.04;82.97;99184.47;114885;1202;23089;-78
2021/04/09 03:27:29;;;;;;;64.70;31.35;;;;;;;-1.04;83.51;99186.31;115030;1201;24743;-78
2021/04/09 03:29:56;;;;;;;65.40;30.60;;;;;;;-1.08;83.58;99180.43;114798;1200;24747;-77
2021/04/09 03:32:23;;;;;;;59.17;30.00;;;;;;;-1.09;83.15;99175.23;114836;1200;23164;-78
2021/04/09 03:34:49;;;;;;;55.10;28.30;;;;;;;-1.11;83.37;99187.91;115033;1202;23224;-77
2021/04/09 03:37:16;;;;;;;57.90;28.05;;;;;;;-1.13;83.42;99177.38;114889;1202;23102;-78
2021/04/09 03:39:43;;;;;;;58.10;27.50;;;;;;;-1.13;83.14;99182.72;114826;1201;23149;-78
2021/04/09 03:42:11;;;;;;;54.30;25.10;;;;;;;-1.12;83.53;99180.88;114897;1201;23086;-77
2021/04/09 03:44:38;;;;;;;43.93;21.93;;;;;;;-1.12;83.50;99180.88;114794;1202;23263;-78
2021/04/09 03:47:05;;;;;;;48.95;22.75;;;;;;;-1.10;83.06;99181.56;115057;1202;23113;-78
2021/04/09 03:49:32;;;;;;;40.15;20.25;;;;;;;-1.11;83.12;99183.41;114882;1202;23244;-78
2021/04/09 03:52:01;;;;;;;42.70;21.23;;;;;;;-1.13;83.04;99180.05;115034;1200;26439;-78
2021/04/09 03:54:28;;;;;;;44.40;19.90;;;;;;;-1.13;82.73;99184.53;114897;1200;26644;-78
2021/04/09 03:56:55;;;;;;;41.70;21.50;;;;;;;-1.16;82.89;99186.52;114885;1199;24536;-78
2021/04/09 03:59:22;;;;;;;42.35;20.80;;;;;;;-1.18;83.21;99188.50;114849;1199;24677;-78
2021/04/09 04:01:49;;;;;;;41.57;21.27;;;;;;;-1.19;83.13;99177.96;114882;1202;23263;-78
2021/04/09 04:04:16;;;;;;;42.75;22.70;;;;;;;-1.20;83.13;99173.63;114844;1202;23293;-78
2021/04/09 04:06:43;;;;;;;39.30;20.73;;;;;;;-1.21;83.31;99180.78;114897;1200;23097;-78
2021/04/09 04:09:09;;;;;;;49.70;24.00;;;;;;;-1.20;82.96;99179.80;114789;1201;24743;-78
2021/04/09 04:11:36;;;;;;;50.27;22.60;;;;;;;-1.18;83.08;99180.48;115032;1202;23117;-78
2021/04/09 04:14:03;;;;;;;46.53;23.60;;;;;;;-1.17;82.98;99167.95;114996;1199;23116;-78
2021/04/09 04:16:30;;;;;;;45.77;22.17;;;;;;;-1.16;82.62;99181.17;115043;1199;24900;-78
2021/04/09 04:18:57;;;;;;;47.07;23.83;;;;;;;-1.16;82.82;99172.33;114842;1202;23609;-78
2021/04/09 04:21:23;;;;;;;44.70;22.57;;;;;;;-1.15;83.16;99176.69;115053;1202;27323;-78
2021/04/09 04:23:51;;;;;;;44.23;22.77;;;;;;;-1.14;82.62;99181.02;114890;1202;26023;-78
2021/04/09 04:26:18;;;;;;;46.17;22.77;;;;;;;-1.11;82.71;99185.24;115035;1202;23093;-78
2021/04/09 04:28:45;;;;;;;42.20;21.65;;;;;;;-1.09;82.61;99178.73;114951;1199;23085;-79
2021/04/09 04:31:12;;;;;;;47.03;22.93;;;;;;;-1.06;82.29;99181.11;114775;1201;23086;-78
2021/04/09 04:33:39;;;;;;;38.53;20.43;;;;;;;-1.04;82.10;99188.98;114835;1200;23116;-79
2021/04/09 04:36:06;;;;;;;45.50;22.57;;;;;;;-1.03;81.71;99188.80;114787;1200;23326;-78
2021/04/09 04:38:33;;;;;;;38.03;19.83;;;;;;;-1.01;82.13;99186.84;114867;1202;23121;-78
2021/04/09 04:41:00;;;;;;;42.50;21.65;;;;;;;-0.99;82.10;99190.20;114812;1202;23113;-79
2021/04/09 04:43:27;;;;;;;35.20;18.80;;;;;;;-0.93;81.92;99188.74;114834;1200;23945;-79
2021/04/09 04:45:54;;;;;;;44.00;21.95;;;;;;;-0.89;81.74;99189.27;114886;1200;23192;-79
2021/04/09 04:48:20;;;;;;;38.65;20.00;;;;;;;-0.89;81.27;99186.60;115014;1202;25977;-79
2021/04/09 04:50:47;;;;;;;46.83;22.23;;;;;;;-0.84;81.69;99193.16;114818;1199;23147;-78
2021/04/09 04:53:14;;;;;;;44.20;20.47;;;;;;;-0.82;81.19;99191.17;114906;1202;26290;-79
2021/04/09 04:55:41;;;;;;;36.37;17.93;;;;;;;-0.79;80.79;99196.22;114904;1199;23186;-79
2021/04/09 04:58:08;;;;;;;40.60;19.23;;;;;;;-0.74;81.25;99192.23;115214;1199;23115;-79
2021/04/09 05:00:35;;;;;;;38.70;19.10;;;;;;;-0.71;80.92;99194.61;115161;1199;23105;-79
2021/04/09 05:03:02;;;;;;;36.53;21.47;;;;;;;-0.67;80.82;99196.00;114896;1202;23090;-79
2021/04/09 05:05:29;;;;;;;36.60;18.55;;;;;;;-0.61;81.32;99198.04;114945;1202;23173;-79
2021/04/09 05:07:55;;;;;;;48.87;22.83;;;;;;;-0.55;80.73;99196.58;115058;1202;23539;-79
2021/04/09 05:10:22;;;;;;;37.63;19.77;;;;;;;-0.49;80.46;99193.29;115081;1199;23263;-79
2021/04/09 05:12:49;;;;;;;36.50;20.00;;;;;;;-0.45;80.88;99186.63;115165;1201;23587;-79
2021/04/09 05:15:16;;;;;;;44.67;22.07;;;;;;;-0.40;80.61;99187.83;115224;1202;24708;-79
2021/04/09 05:17:43;;;;;;;38.97;20.13;;;;;;;-0.38;80.46;99182.32;115001;1200;24583;-79
2021/04/09 05:20:10;;;;;;;41.97;20.40;;;;;;;-0.33;80.27;99184.55;115086;1202;23132;-79
2021/04/09 05:22:37;;;;;;;36.97;20.07;;;;;;;-0.27;80.18;99182.05;115054;1202;23122;-79
2021/04/09 05:25:05;;;;;;;45.40;21.80;;;;;;;-0.25;78.93;99176.55;115241;1199;23543;-79
2021/04/09 05:27:32;;;;;;;37.13;20.20;;;;;;;-0.20;79.52;99185.77;114907;1202;23767;-79
2021/04/09 05:29:59;;;;;;;34.33;19.93;;;;;;;-0.15;79.30;99177.28;114904;1202;23177;-79
2021/04/09 05:32:26;;;;;;;40.80;21.50;;;;;;;-0.09;79.35;99176.66;115323;1202;23177;-79
2021/04/09 05:34:54;;;;;;;34.90;18.20;;;;;;;-0.03;79.22;99175.18;115454;1200;24986;-79
2021/04/09 05:37:21;;;;;;;41.73;19.80;;;;;;;0.02;79.86;99170.19;115111;1202;23096;-79
2021/04/09 05:39:48;;;;;;;32.50;18.20;;;;;;;0.08;79.69;99174.89;115164;1202;23230;-79
2021/04/09 05:42:15;;;;;;;29.77;16.43;;;;;;;0.12;78.56;99170.88;115204;1198;23118;-79
2021/04/09 05:44:43;;;;;;;32.00;17.40;;;;;;;0.17;79.17;99173.09;114955;1202;26277;-78
2021/04/09 05:47:10;;;;;;;31.70;18.10;;;;;;;0.21;78.01;99178.97;115255;1202;23089;-78
2021/04/09 05:49:38;;;;;;;33.70;16.95;;;;;;;0.26;78.50;99179.33;115033;1198;23327;-78
2021/04/09 05:52:06;;;;;;;34.90;18.70;;;;;;;0.26;78.00;99174.80;115162;1199;23081;-78
2021/04/09 05:54:34;;;;;;;48.03;23.20;;;;;;;0.27;78.80;99179.17;115060;1199;23010;-78
2021/04/09 05:57:01;;;;;;;43.23;20.57;;;;;;;0.28;78.35;99177.33;115299;1202;23096;-78
2021/04/09 05:59:28;;;;;;;38.97;20.53;;;;;;;0.29;77.85;99177.17;114946;1202;23244;-78
2021/04/09 06:01:56;;;;;;;39.97;20.53;;;;;;;0.34;78.88;99176.70;114985;1202;23211;-78
2021/04/09 06:04:22;;;;;;;35.33;18.23;;;;;;;0.41;78.75;99175.05;114898;1202;23232;-78
2021/04/09 06:06:49;;;;;;;36.30;17.83;;;;;;;0.48;78.18;99173.39;115052;1200;27292;-78
2021/04/09 06:09:16;;;;;;;40.55;19.25;;;;;;;0.53;77.36;99165.70;114861;1201;24743;-78
2021/04/09 06:11:44;;;;;;;39.73;18.87;;;;;;;0.60;77.63;99171.23;115045;1199;23166;-78
2021/04/09 06:14:11;;;;;;;43.15;22.65;;;;;;;0.66;77.23;99167.08;115251;1200;23299;-79
2021/04/09 06:16:38;;;;;;;38.97;19.57;;;;;;;0.72;76.82;99161.05;114942;1200;23137;-79
2021/04/09 06:19:05;;;;;;;49.03;22.63;;;;;;;0.75;76.95;99169.60;115435;1200;23102;-79
2021/04/09 06:21:32;;;;;;;44.43;21.43;;;;;;;0.80;77.04;99166.44;115566;1196;27455;-79
2021/04/09 06:23:59;;;;;;;41.43;22.07;;;;;;;0.85;76.63;99169.47;115232;1202;26086;-79
2021/04/09 06:26:26;;;;;;;41.80;21.85;;;;;;;0.89;76.58;99160.08;115483;1199;26204;-79
2021/04/09 06:28:55;;;;;;;37.57;19.97;;;;;;;0.92;76.51;99151.72;114966;1202;23140;-79
2021/04/09 06:31:22;;;;;;;36.63;18.97;;;;;;;0.98;76.47;99158.25;115149;1199;23116;-79
2021/04/09 06:33:49;;;;;;;32.40;17.20;;;;;;;1.05;76.03;99148.53;115195;1200;24723;-79
2021/04/09 06:36:16;;;;;;;31.63;15.20;;;;;;;1.11;75.79;99155.90;115094;1199;26665;-79
2021/04/09 06:38:43;;;;;;;32.07;16.10;;;;;;;1.19;76.10;99157.77;115273;1199;22955;-79
2021/04/09 06:41:12;;;;;;;30.60;15.83;;;;;;;1.26;75.08;99153.41;115196;1201;23116;-78
2021/04/09 06:43:39;;;;;;;25.87;14.77;;;;;;;1.36;74.79;99147.02;115002;1202;23292;-79
2021/04/09 06:46:06;;;;;;;17.70;9.15;;;;;;;1.43;74.39;99143.48;114957;1202;23226;-78
2021/04/09 06:48:34;;;;;;;19.05;8.10;;;;;;;1.52;73.86;99152.37;115067;1199;26035;-79
2021/04/09 06:51:01;;;;;;;13.57;7.70;;;;;;;1.62;73.39;99144.14;115218;1202;23093;-78
2021/04/09 06:53:30;;;;;;;14.63;7.33;;;;;;;1.71;72.36;99151.17;115079;1200;23112;-78
2021/04/09 06:55:59;;;;;;;16.57;7.37;;;;;;;1.79;71.64;99143.11;115031;1200;23120;-79
2021/04/09 06:58:27;;;;;;;12.43;7.03;;;;;;;1.89;72.48;99135.70;115213;1200;24724;-78
2021/04/09 07:00:59;;;;;;;12.70;6.67;;;;;;;1.98;71.81;99131.11;115300;1202;23085;-79
2021/04/09 07:03:26;;;;;;;11.75;6.85;;;;;;;2.09;71.07;99124.55;115075;1201;25958;-79
2021/04/09 07:05:53;;;;;;;11.30;5.70;;;;;;;2.20;70.86;99134.08;115043;1200;24710;-78
2021/04/09 07:08:20;;;;;;;11.03;6.00;;;;;;;2.30;69.75;99133.85;115072;1202;23089;-78
2021/04/09 07:10:47;;;;;;;13.53;5.97;;;;;;;2.39;69.14;99136.34;115094;1202;23113;-78
2021/04/09 07:13:14;;;;;;;10.65;6.25;;;;;;;2.49;68.61;99141.48;114973;1202;24738;-78
2021/04/09 07:15:46;;;;;;;10.30;6.13;;;;;;;2.56;67.77;99126.33;114920;1202;24565;-78
2021/04/09 07:18:16;;;;;;;7.40;4.70;;;;;;;2.67;67.37;99125.08;114903;1202;23112;-78
2021/04/09 07:20:45;;;;;;;9.20;5.45;;;;;;;2.77;67.24;99120.31;114791;1202;23105;-78
2021/04/09 07:23:13;;;;;;;9.38;4.93;;;;;;;2.89;66.61;99120.75;114841;1199;26003;-80
2021/04/09 07:25:45;;;;;;;12.20;5.00;;;;;;;2.99;65.17;99120.49;115059;1203;23343;-78
2021/04/09 07:28:21;;;;;;;11.00;5.20;;;;;;;3.10;65.22;99113.84;115054;1200;25973;-78
2021/04/09 07:30:50;;;;;;;8.27;4.50;;;;;;;3.17;64.00;99115.66;114817;1202;23244;-78
2021/04/09 07:33:23;;;;;;;6.13;3.45;;;;;;;3.25;62.85;99111.22;114881;1202;23224;-78
2021/04/09 07:36:00;;;;;;;11.80;5.30;;;;;;;3.32;62.78;99107.61;115063;1200;23373;-79
2021/04/09 07:38:29;;;;;;;7.60;4.35;;;;;;;3.41;61.92;99103.81;115096;1200;27176;-79
2021/04/09 07:41:00;;;;;;;9.80;5.20;;;;;;;3.50;62.03;99098.36;114919;1200;27281;-78
2021/04/09 07:43:32;;;;;;;6.27;4.03;;;;;;;3.58;60.84;99101.81;115133;1201;23226;-78
2021/04/09 07:46:01;;;;;;;7.13;3.83;;;;;;;3.66;59.75;99103.57;114854;1201;27265;-79
2021/04/09 07:48:35;;;;;;;7.15;3.85;;;;;;;3.75;58.98;99097.10;115057;1202;23122;-79
2021/04/09 07:51:04;;;;;;;7.83;3.83;;;;;;;3.84;58.19;99095.13;115015;1202;27207;-79
2021/04/09 07:53:31;;;;;;;9.10;3.98;;;;;;;3.93;58.46;99091.34;115068;1202;23096;-79
2021/04/09 07:56:06;;;;;;;7.45;3.50;;;;;;;4.04;57.81;99084.64;115039;1202;23225;-79
2021/04/09 07:58:34;;;;;;;6.90;3.27;;;;;;;4.15;57.05;99089.54;115074;1200;26198;-78
2021/04/09 08:01:02;;;;;;;6.77;3.80;;;;;;;4.24;57.24;99082.18;115096;1202;23243;-79
2021/04/09 08:03:34;;;;;;;6.25;3.00;;;;;;;4.38;55.42;99077.79;115098;1200;23116;-79
2021/04/09 08:06:09;;;;;;;6.55;3.40;;;;;;;4.49;54.53;99081.85;115237;1200;23136;-78
2021/04/09 08:08:38;;;;;;;4.70;3.05;;;;;;;4.61;55.06;99077.63;115179;1200;23086;-79
2021/04/09 08:11:35;;;;;;;6.00;3.73;;;;;;;4.73;55.15;99075.27;115151;1202;23105;-79
2021/04/09 08:14:23;;;;;;;5.43;3.30;;;;;;;4.86;54.71;99075.39;115281;1200;23092;-79
2021/04/09 08:16:52;;;;;;;7.55;3.70;;;;;;;4.94;53.31;99074.45;114999;1202;27019;-78
2021/04/09 08:19:24;;;;;;;5.40;3.30;;;;;;;5.02;52.72;99071.59;114970;1200;26080;-78
2021/04/09 08:21:54;;;;;;;7.10;3.60;;;;;;;5.10;52.15;99065.23;115051;1202;23240;-78
2021/04/09 08:24:31;;;;;;;7.60;3.90;;;;;;;5.19;51.80;99068.61;115050;1200;23086;-78
2021/04/09 08:26:59;;;;;;;6.63;3.07;;;;;;;5.32;52.52;99060.63;115024;1202;23110;-78
2021/04/09 08:29:28;;;;;;;4.47;2.67;;;;;;;5.46;50.88;99065.09;115047;1200;23143;-78
2021/04/09 08:31:56;;;;;;;5.13;3.18;;;;;;;5.59;50.09;99058.94;114958;1201;29531;-78
2021/04/09 08:34:23;;;;;;;5.30;2.80;;;;;;;5.71;50.64;99053.83;115007;1199;23113;-78
2021/04/09 08:36:51;;;;;;;6.05;2.95;;;;;;;5.79;49.02;99064.48;115332;1199;23109;-78
2021/04/09 08:39:19;;;;;;;5.57;3.27;;;;;;;5.86;48.80;99054.55;115128;1201;25955;-78
2021/04/09 08:41:50;;;;;;;5.90;3.05;;;;;;;5.94;48.51;99048.13;115359;1201;23221;-77
2021/04/09 08:44:17;;;;;;;4.55;3.10;;;;;;;6.03;47.99;99049.65;115077;1200;23128;-77
2021/04/09 08:46:46;;;;;;;4.50;2.67;;;;;;;6.14;48.11;99042.00;114961;1198;24875;-77
2021/04/09 08:49:15;;;;;;;5.50;3.00;;;;;;;6.22;47.12;99044.55;115096;1200;24377;-77
2021/04/09 08:51:44;;;;;;;6.13;2.90;;;;;;;6.30;47.24;99038.94;115011;1202;25971;-77
2021/04/09 08:54:29;;;;;;;7.30;3.23;;;;;;;6.40;46.62;99033.16;115239;1200;23110;-77
2021/04/09 08:57:01;;;;;;;6.20;3.00;;;;;;;6.50;45.87;99039.02;115357;1202;26586;-77
2021/04/09 08:59:47;;;;;;;4.20;2.80;;;;;;;6.56;45.42;99032.77;115256;1199;23112;-77
2021/04/09 09:02:31;;;;;;;4.00;2.50;;;;;;;6.63;45.97;99011.14;114969;1202;26640;-77
2021/04/09 09:05:03;;;;;;;4.05;2.90;;;;;;;6.76;46.83;99027.38;115272;1202;28441;-75
2021/04/09 09:07:49;;;;;;;5.25;3.10;;;;;;;6.91;46.11;99020.97;115087;1200;23108;-77
2021/04/09 09:10:22;;;;;;;5.25;2.80;;;;;;;7.02;45.48;99018.45;115266;1199;23111;-77
2021/04/09 09:13:09;;;;;;;6.95;3.00;;;;;;;7.15;44.92;99014.94;114972;1200;23094;-76
2021/04/09 09:15:49;;;;;;;4.20;2.83;;;;;;;7.25;44.00;99002.84;115221;1202;27353;-77
2021/04/09 09:18:22;;;;;;;6.07;2.60;;;;;;;7.36;45.46;99007.61;115082;1201;26619;-77
2021/04/09 09:21:21;;;;;;;5.13;2.83;;;;;;;7.46;43.76;98999.88;114774;1202;23099;-76
2021/04/09 09:23:57;;;;;;;5.65;2.75;;;;;;;7.56;43.57;98991.30;115106;1202;23090;-77
2021/04/09 09:26:40;;;;;;;4.75;2.65;;;;;;;7.68;44.29;98996.91;114769;1200;23131;-76
2021/04/09 09:29:10;;;;;;;4.90;2.70;;;;;;;7.79;42.01;98996.23;114862;1202;23086;-76
2021/04/09 09:31:57;;;;;;;4.37;2.63;;;;;;;7.88;43.68;98992.27;114819;1201;25964;-76
2021/04/09 09:34:25;;;;;;;5.20;3.20;;;;;;;7.99;43.50;98975.31;114822;1201;26153;-76
2021/04/09 09:37:22;;;;;;;7.03;2.63;;;;;;;8.10;43.55;98970.26;115023;1202;23103;-76
2021/04/09 09:40:05;;;;;;;4.57;2.37;;;;;;;8.24;42.06;98971.03;114829;1202;27313;-76
2021/04/09 09:42:33;;;;;;;4.85;2.65;;;;;;;8.38;42.73;98977.22;114799;1202;23102;-76
2021/04/09 09:45:06;;;;;;;3.93;2.60;;;;;;;8.48;41.69;98959.44;114770;1202;26261;-76
2021/04/09 09:47:47;;;;;;;5.43;2.87;;;;;;;8.62;41.50;98962.04;115108;1199;23101;-76
2021/04/09 09:50:29;;;;;;;6.25;2.10;;;;;;;8.74;41.39;98952.13;114889;1203;23132;-76
2021/04/09 09:53:07;;;;;;;2.80;2.30;;;;;;;8.86;40.97;98957.69;114801;1201;27016;-76
2021/04/09 09:55:36;;;;;;;4.70;2.30;;;;;;;8.98;41.17;98941.48;115069;1202;24794;-76
2021/04/09 09:58:28;;;;;;;2.75;2.03;;;;;;;9.10;41.32;98937.83;114845;1200;23273;-76
2021/04/09 10:01:04;;;;;;;3.80;2.50;;;;;;;9.27;40.69;98929.09;115008;1200;23244;-76
2021/04/09 10:03:37;;;;;;;3.70;2.40;;;;;;;9.37;39.55;98937.56;114769;1200;23384;-76
2021/04/09 10:06:08;;;;;;;6.05;2.80;;;;;;;9.44;39.62;98929.34;114747;1202;23109;-76
2021/04/09 10:08:37;;;;;;;4.65;2.40;;;;;;;9.51;39.93;98930.10;114808;1202;26198;-77
2021/04/09 10:11:18;;;;;;;4.70;2.50;;;;;;;9.61;40.19;98915.95;114715;1203;23160;-76
2021/04/09 10:13:51;;;;;;;6.77;2.60;;;;;;;9.73;39.23;98908.70;115189;1201;23090;-76
2021/04/09 10:16:20;;;;;;;4.87;2.20;;;;;;;9.82;38.19;98903.78;114794;1202;23548;-76
2021/04/09 10:18:49;;;;;;;;;;;;;;;9.89;39.02;98893.64;114828;1205;23101;-76
2021/04/09 10:21:19;;;;;;;3.17;1.83;;;;;;;10.00;38.47;98894.74;115051;1202;26064;-76
2021/04/09 10:24:12;;;;;;;11.60;3.25;;;;;;;10.06;39.62;98888.40;114762;1202;23095;-74
2021/04/09 10:26:44;;;;;;;4.13;2.53;;;;;;;10.13;37.81;98880.11;114746;1203;23112;-76
2021/04/09 10:29:29;;;;;;;5.35;2.30;;;;;;;10.19;38.59;98879.20;115028;1202;23122;-76
2021/04/09 10:31:58;;;;;;;4.55;2.15;;;;;;;10.31;39.18;98866.48;114807;1202;23137;-75
2021/04/09 10:34:29;;;;;;;5.38;2.30;;;;;;;10.43;38.11;98867.34;115047;1200;23101;-77
2021/04/09 10:36:57;;;;;;;6.60;2.80;;;;;;;10.53;37.53;98871.38;115007;1202;23090;-75
2021/04/09 10:39:25;;;;;;;8.25;2.65;;;;;;;10.58;36.47;98871.51;114760;1203;23091;-76
2021/04/09 10:41:55;;;;;;;15.70;3.80;;;;;;;10.63;35.90;98871.64;115105;1200;24703;-75
2021/04/09 10:44:29;;;;;;;26.10;3.43;;;;;;;10.63;36.66;98861.56;114746;1202;23103;-75
2021/04/09 10:46:58;;;;;;;13.20;2.50;;;;;;;10.71;36.64;98848.66;115054;1202;23095;-75
2021/04/09 10:49:33;;;;;;;3.70;2.30;;;;;;;10.81;36.40;98855.17;114789;1202;24766;-75
2021/04/09 10:52:30;;;;;;;4.75;2.85;;;;;;;10.90;36.71;98842.02;114820;1202;23163;-76
2021/04/09 10:55:02;;;;;;;5.20;2.25;;;;;;;11.02;36.35;98848.30;115102;1201;23151;-76
2021/04/09 10:57:35;;;;;;;5.70;2.10;;;;;;;11.14;35.92;98840.11;114837;1201;27216;-75
2021/04/09 11:00:04;;;;;;;8.60;3.05;;;;;;;11.29;35.32;98847.78;115053;1200;23112;-75
2021/04/09 11:02:35;;;;;;;4.80;2.53;;;;;;;11.34;34.10;98845.16;115146;1200;24719;-75
2021/04/09 11:05:03;;;;;;;4.45;3.00;;;;;;;11.37;35.74;98847.42;114865;1203;23170;-76
2021/04/09 11:07:45;;;;;;;4.95;2.95;;;;;;;11.48;35.55;98840.28;115161;1203;23096;-76
2021/04/09 11:10:38;;;;;;;3.87;2.10;;;;;;;11.63;36.48;98838.92;114835;1199;24765;-76
2021/04/09 11:13:06;;;;;;;2.87;2.00;;;;;;;11.75;35.40;98828.80;115182;1202;24740;-76
2021/04/09 11:15:43;;;;;;;2.75;2.00;;;;;;;11.82;35.20;98832.20;114853;1202;25965;-76
2021/04/09 11:18:12;;;;;;;4.80;2.10;;;;;;;11.89;34.97;98811.05;114870;1202;23102;-76
2021/04/09 11:20:45;;;;;;;4.57;2.77;;;;;;;11.99;34.16;98821.38;115097;1202;23129;-75
2021/04/09 11:23:39;;;;;;;4.75;2.40;;;;;;;12.11;34.18;98829.48;114885;1202;23102;-76
2021/04/09 11:26:17;;;;;;;3.85;2.30;;;;;;;12.24;35.84;98815.53;114783;1202;23111;-76
2021/04/09 11:28:56;;;;;;;5.30;2.35;;;;;;;12.42;32.92;98816.37;115083;1203;23109;-76
2021/04/09 11:31:24;;;;;;;;;;;;;;;12.48;33.31;98813.48;114794;1200;27384;-76
2021/04/09 11:34:07;;;;;;;3.70;1.70;;;;;;;12.50;32.84;98818.66;114848;1200;21601;-76
2021/04/09 11:36:47;;;;;;;6.65;2.00;;;;;;;12.59;32.53;98810.88;115092;1202;24271;-76